sensor_id;sensor_type;location;lat;lon;timestamp;pressure;altitude;pressure_sealevel;temperature;humidity
15260;BME280;34462;51.368;12.364;2024-03-22T00:00:49;100065.22;;;-141.84;98.28
15260;BME280;34462;51.368;12.364;2024-03-22T00:03:16;99268.97;;;-141.84;97.80
15260;BME280;34462;51.368;12.364;2024-03-22T00:05:42;98472.84;;;-141.84;97.62
15260;BME280;34462;51.368;12.364;2024-03-22T00:08:09;99534.38;;;-141.84;98.19
15260;BME280;34462;51.368;12.364;2024-03-22T00:10:38;100861.66;;;-141.84;98.71
15260;BME280;34462;51.368;12.364;2024-03-22T00:13:04;101127.16;;;-141.84;99.05
15260;BME280;34462;51.368;12.364;2024-03-22T00:15:31;102455.00;;;-141.84;99.70
15260;BME280;34462;51.368;12.364;2024-03-22T00:17:58;103251.88;;;-141.84;99.91
15260;BME280;34462;51.368;12.364;2024-03-22T00:20:25;104048.94;;;-141.84;100.00
15260;BME280;34462;51.368;12.364;2024-03-22T00:22:51;104580.41;;;-141.84;100.00
15260;BME280;34462;51.368;12.364;2024-03-22T00:25:18;105377.72;;;-141.84;100.00
15260;BME280;34462;51.368;12.364;2024-03-22T00:27:46;106441.06;;;-141.84;100.00
15260;BME280;34462;51.368;12.364;2024-03-22T00:30:14;103517.56;;;-141.84;99.64
15260;BME280;34462;51.368;12.364;2024-03-22T00:32:41;100596.16;;;-141.84;98.68
15260;BME280;34462;51.368;12.364;2024-03-22T00:35:10;100861.66;;;-141.84;98.64
15260;BME280;34462;51.368;12.364;2024-03-22T00:37:36;100596.16;;;-141.84;98.78
15260;BME280;34462;51.368;12.364;2024-03-22T00:40:05;99534.38;;;-141.84;98.30
15260;BME280;34462;51.368;12.364;2024-03-22T00:42:32;100861.66;;;-141.84;98.88
15260;BME280;34462;51.368;12.364;2024-03-22T00:45:00;101392.69;;;-141.84;99.19
15260;BME280;34462;51.368;12.364;2024-03-22T00:47:26;103517.56;;;-141.84;100.00
15260;BME280;34462;51.368;12.364;2024-03-22T00:49:54;102455.00;;;-141.84;99.50
15260;BME280;34462;51.368;12.364;2024-03-22T00:52:20;102189.38;;;-141.84;99.27
15260;BME280;34462;51.368;12.364;2024-03-22T00:54:47;103783.25;;;-141.84;100.00
15260;BME280;34462;51.368;12.364;2024-03-22T00:57:14;102189.38;;;-141.84;98.90
15260;BME280;34462;51.368;12.364;2024-03-22T00:59:41;99003.56;;;-141.84;98.06
15260;BME280;34462;51.368;12.364;2024-03-22T01:02:09;101923.81;;;-141.84;99.21
15260;BME280;34462;51.368;12.364;2024-03-22T01:04:36;98738.19;;;-141.84;97.76
15260;BME280;34462;51.368;12.364;2024-03-22T01:07:02;101923.81;;;-141.84;99.26
15260;BME280;34462;51.368;12.364;2024-03-22T01:09:30;103517.56;;;-141.84;99.95
15260;BME280;34462;51.368;12.364;2024-03-22T01:11:56;104846.16;;;-141.84;100.00
15260;BME280;34462;51.368;12.364;2024-03-22T01:14:23;103251.88;;;-141.84;99.36
15260;BME280;34462;51.368;12.364;2024-03-22T01:16:49;100065.22;;;-141.84;98.21
15260;BME280;34462;51.368;12.364;2024-03-22T01:19:18;101392.69;;;-141.84;99.00
15260;BME280;34462;51.368;12.364;2024-03-22T01:21:44;100065.22;;;-141.84;97.36
15260;BME280;34462;51.368;12.364;2024-03-22T01:24:11;92904.41;;;-141.84;94.77
15260;BME280;34462;51.368;12.364;2024-03-22T01:26:38;83376.34;;;-141.84;92.02
15260;BME280;34462;51.368;12.364;2024-03-22T01:29:05;87608.25;;;-141.84;93.13
15260;BME280;34462;51.368;12.364;2024-03-22T01:31:31;89461.13;;;-141.84;94.30
15260;BME280;34462;51.368;12.364;2024-03-22T01:33:59;95555.09;;;-141.84;96.44
15260;BME280;34462;51.368;12.364;2024-03-22T01:36:26;90785.09;;;-141.84;94.29
15260;BME280;34462;51.368;12.364;2024-03-22T01:38:54;87608.25;;;-141.84;93.51
15260;BME280;34462;51.368;12.364;2024-03-22T01:41:20;91049.97;;;-141.84;94.80
15260;BME280;34462;51.368;12.364;2024-03-22T01:43:47;93434.41;;;-141.84;94.67
15260;BME280;34462;51.368;12.364;2024-03-22T01:46:14;93169.38;;;-141.84;95.29
15260;BME280;34462;51.368;12.364;2024-03-22T01:48:42;97146.31;;;-141.84;96.98
15260;BME280;34462;51.368;12.364;2024-03-22T01:51:08;99534.38;;;-141.84;97.83
15260;BME280;34462;51.368;12.364;2024-03-22T01:53:38;98207.50;;;-141.84;97.35
15260;BME280;34462;51.368;12.364;2024-03-22T01:56:06;100596.16;;;-141.84;98.44
15260;BME280;34462;51.368;12.364;2024-03-22T01:58:34;99268.97;;;-141.84;97.62
15260;BME280;34462;51.368;12.364;2024-03-22T02:01:01;89725.88;;;-141.84;93.67
15260;BME280;34462;51.368;12.364;2024-03-22T02:03:28;89461.13;;;-141.84;94.17
15260;BME280;34462;51.368;12.364;2024-03-22T02:05:55;94229.53;;;-141.84;96.01
15260;BME280;34462;51.368;12.364;2024-03-22T02:08:23;96881.06;;;-141.84;97.05
15260;BME280;34462;51.368;12.364;2024-03-22T02:10:50;98738.19;;;-141.84;97.50
15260;BME280;34462;51.368;12.364;2024-03-22T02:13:18;97411.59;;;-141.84;96.75
15260;BME280;34462;51.368;12.364;2024-03-22T02:15:45;97676.88;;;-141.84;97.12
15260;BME280;34462;51.368;12.364;2024-03-22T02:18:12;97676.88;;;-141.84;96.93
15260;BME280;34462;51.368;12.364;2024-03-22T02:20:38;90255.47;;;-141.84;93.82
15260;BME280;34462;51.368;12.364;2024-03-22T02:23:05;86549.84;;;-141.84;92.85
15260;BME280;34462;51.368;12.364;2024-03-22T02:25:33;70970.84;;;-141.84;88.83
15260;BME280;34462;51.368;12.364;2024-03-22T02:28:00;72288.75;;;-141.84;88.90
15260;BME280;34462;51.368;12.364;2024-03-22T02:30:26;64914.06;;;-141.84;87.41
15260;BME280;34462;51.368;12.364;2024-03-22T02:32:54;67283.00;;;-141.84;88.19
15260;BME280;34462;51.368;12.364;2024-03-22T02:35:20;54140.00;;;-141.84;85.33
15260;BME280;34462;51.368;12.364;2024-03-22T02:37:47;46013.16;;;-141.84;84.14
15260;BME280;34462;51.368;12.364;2024-03-22T02:40:13;51516.59;;;-141.84;85.13
15260;BME280;34462;51.368;12.364;2024-03-22T02:42:42;55714.84;;;-141.84;85.83
15260;BME280;34462;51.368;12.364;2024-03-22T02:45:09;62283.53;;;-141.84;86.75
15260;BME280;34462;51.368;12.364;2024-03-22T02:47:36;57815.66;;;-141.84;85.89
15260;BME280;34462;51.368;12.364;2024-03-22T02:50:03;62546.50;;;-141.84;86.90
15260;BME280;34462;51.368;12.364;2024-03-22T02:52:30;59917.56;;;-141.84;86.36
15260;BME280;34462;51.368;12.364;2024-03-22T02:54:56;51778.88;;;-141.84;85.01
15260;BME280;34462;51.368;12.364;2024-03-22T02:57:23;49157.03;;;-141.84;84.67
15260;BME280;34462;51.368;12.364;2024-03-22T02:59:51;59129.22;;;-141.84;86.45
15260;BME280;34462;51.368;12.364;2024-03-22T03:02:18;60180.38;;;-141.84;86.14
15260;BME280;34462;51.368;12.364;2024-03-22T03:04:45;55189.84;;;-141.84;85.75
15260;BME280;34462;51.368;12.364;2024-03-22T03:07:12;58603.75;;;-141.84;86.04
15260;BME280;34462;51.368;12.364;2024-03-22T03:09:38;53615.19;;;-141.84;85.13
15260;BME280;34462;51.368;12.364;2024-03-22T03:12:06;57290.34;;;-141.84;85.85
15260;BME280;34462;51.368;12.364;2024-03-22T03:14:32;57815.66;;;-141.84;85.95
15260;BME280;34462;51.368;12.364;2024-03-22T03:17:01;59917.56;;;-141.84;86.34
15260;BME280;34462;51.368;12.364;2024-03-22T03:19:27;48894.97;;;-141.84;84.22
15260;BME280;34462;51.368;12.364;2024-03-22T03:21:55;37674.34;;;-141.84;83.08
15260;BME280;34462;51.368;12.364;2024-03-22T03:24:21;28397.81;;;-141.84;81.13
15260;BME280;34462;51.368;12.364;2024-03-22T03:26:48;23473.81;;;-141.84;80.16
15260;BME280;34462;51.368;12.364;2024-03-22T03:29:15;25972.69;;;-141.84;81.17
15260;BME280;34462;51.368;12.364;2024-03-22T03:31:42;32249.31;;;-141.84;82.27
15260;BME280;34462;51.368;12.364;2024-03-22T03:34:10;33168.94;;;-141.84;82.17
15260;BME280;34462;51.368;12.364;2024-03-22T03:36:37;36804.69;;;-141.84;82.97
15260;BME280;34462;51.368;12.364;2024-03-22T03:39:03;45751.28;;;-141.84;83.95
15260;BME280;34462;51.368;12.364;2024-03-22T03:41:31;42086.81;;;-141.84;83.55
15260;BME280;34462;51.368;12.364;2024-03-22T03:43:58;46275.03;;;-141.84;84.18
15260;BME280;34462;51.368;12.364;2024-03-22T03:46:25;36612.81;;;-141.84;82.46
15260;BME280;34462;51.368;12.364;2024-03-22T03:48:52;28004.72;;;-141.84;81.72
15260;BME280;34462;51.368;12.364;2024-03-22T03:51:21;34411.06;;;-141.84;82.46
15260;BME280;34462;51.368;12.364;2024-03-22T03:53:47;40047.47;;;-141.84;83.31
15260;BME280;34462;51.368;12.364;2024-03-22T03:56:14;33503.41;;;-141.84;81.75
15260;BME280;34462;51.368;12.364;2024-03-22T03:58:41;27931.41;;;-141.84;81.37
15260;BME280;34462;51.368;12.364;2024-03-22T04:01:09;32771.28;;;-141.84;82.08
15260;BME280;34462;51.368;12.364;2024-03-22T04:03:35;26534.53;;;-141.84;80.92
15260;BME280;34462;51.368;12.364;2024-03-22T04:06:03;24948.94;;;-141.84;80.67
15260;BME280;34462;51.368;12.364;2024-03-22T04:08:32;29288.00;;;-141.84;81.61
15260;BME280;34462;51.368;12.364;2024-03-22T04:10:59;23840.00;;;-141.84;80.23
15260;BME280;34462;51.368;12.364;2024-03-22T04:13:27;22145.66;;;-141.84;79.61
15260;BME280;34462;51.368;12.364;2024-03-22T04:15:54;28613.72;;;-141.84;81.87
15260;BME280;34462;51.368;12.364;2024-03-22T04:18:24;37474.25;;;-141.84;82.90
15260;BME280;34462;51.368;12.364;2024-03-22T04:20:55;40233.38;;;-141.84;83.15
15260;BME280;34462;51.368;12.364;2024-03-22T04:23:22;29508.03;;;-141.84;81.73
15260;BME280;34462;51.368;12.364;2024-03-22T04:25:55;27621.84;;;-141.84;81.19
15260;BME280;34462;51.368;12.364;2024-03-22T04:28:22;23030.34;;;-141.84;79.59
15260;BME280;34462;51.368;12.364;2024-03-22T04:30:59;19976.44;;;-141.84;77.69
15260;BME280;34462;51.368;12.364;2024-03-22T04:33:26;20246.75;;;-141.84;78.19
15260;BME280;34462;51.368;12.364;2024-03-22T04:35:53;23768.78;;;-141.84;80.38
15260;BME280;34462;51.368;12.364;2024-03-22T04:38:20;20519.13;;;-141.84;78.53
15260;BME280;34462;51.368;12.364;2024-03-22T04:40:48;22066.34;;;-141.84;79.35
15260;BME280;34462;51.368;12.364;2024-03-22T04:43:16;19541.50;;;-141.84;77.18
15260;BME280;34462;51.368;12.364;2024-03-22T04:45:44;19720.34;;;-141.84;77.58
15260;BME280;34462;51.368;12.364;2024-03-22T04:48:14;24403.56;;;-141.84;80.57
15260;BME280;34462;51.368;12.364;2024-03-22T04:50:40;27607.59;;;-141.84;81.10
15260;BME280;34462;51.368;12.364;2024-03-22T04:53:08;20248.78;;;-141.84;77.83
15260;BME280;34462;51.368;12.364;2024-03-22T04:55:34;20289.44;;;-141.84;78.38
15260;BME280;34462;51.368;12.364;2024-03-22T04:58:02;19527.28;;;-141.84;77.14
15260;BME280;34462;51.368;12.364;2024-03-22T05:00:29;19978.47;;;-141.84;77.48
15260;BME280;34462;51.368;12.364;2024-03-22T05:02:57;19966.28;;;-141.84;77.85
15260;BME280;34462;51.368;12.364;2024-03-22T05:05:23;23545.00;;;-141.84;80.64
15260;BME280;34462;51.368;12.364;2024-03-22T05:07:50;23404.63;;;-141.84;79.93
15260;BME280;34462;51.368;12.364;2024-03-22T05:10:16;20104.47;;;-141.84;78.04
15260;BME280;34462;51.368;12.364;2024-03-22T05:12:44;20037.41;;;-141.84;77.58
15260;BME280;34462;51.368;12.364;2024-03-22T05:15:11;19297.66;;;-141.84;76.63
15260;BME280;34462;51.368;12.364;2024-03-22T05:17:39;19082.25;;;-141.84;76.06
15260;BME280;34462;51.368;12.364;2024-03-22T05:20:08;18911.56;;;-141.84;75.01
15260;BME280;34462;51.368;12.364;2024-03-22T05:22:36;18901.41;;;-141.84;74.78
15260;BME280;34462;51.368;12.364;2024-03-22T05:25:05;19679.72;;;-141.84;77.52
15260;BME280;34462;51.368;12.364;2024-03-22T05:27:32;19756.94;;;-141.84;77.52
15260;BME280;34462;51.368;12.364;2024-03-22T05:29:59;20517.09;;;-141.84;78.38
15260;BME280;34462;51.368;12.364;2024-03-22T05:32:26;19663.44;;;-141.84;77.30
15260;BME280;34462;51.368;12.364;2024-03-22T05:34:54;19311.88;;;-141.84;76.47
15260;BME280;34462;51.368;12.364;2024-03-22T05:37:21;19488.69;;;-141.84;77.31
15260;BME280;34462;51.368;12.364;2024-03-22T05:39:49;21405.50;;;-141.84;78.66
15260;BME280;34462;51.368;12.364;2024-03-22T05:42:15;20202.03;;;-141.84;77.95
15260;BME280;34462;51.368;12.364;2024-03-22T05:44:43;20240.66;;;-141.84;78.01
15260;BME280;34462;51.368;12.364;2024-03-22T05:47:10;20263.00;;;-141.84;78.11
15260;BME280;34462;51.368;12.364;2024-03-22T05:49:37;20277.25;;;-141.84;78.00
15260;BME280;34462;51.368;12.364;2024-03-22T05:52:05;19500.88;;;-141.84;76.72
15260;BME280;34462;51.368;12.364;2024-03-22T05:54:32;19047.72;;;-141.84;75.29
15260;BME280;34462;51.368;12.364;2024-03-22T05:56:59;18946.13;;;-141.84;75.24
15260;BME280;34462;51.368;12.364;2024-03-22T05:59:26;18673.84;;;-141.84;72.34
15260;BME280;34462;51.368;12.364;2024-03-22T06:01:53;18710.44;;;-141.84;72.41
15260;BME280;34462;51.368;12.364;2024-03-22T06:04:20;18834.38;;;-141.84;73.73
15260;BME280;34462;51.368;12.364;2024-03-22T06:06:47;18799.81;;;-141.84;73.33
15260;BME280;34462;51.368;12.364;2024-03-22T06:09:15;18818.09;;;-141.84;73.63
15260;BME280;34462;51.368;12.364;2024-03-22T06:11:49;18738.88;;;-141.84;72.62
15260;BME280;34462;51.368;12.364;2024-03-22T06:14:17;18649.47;;;-141.84;70.47
15260;BME280;34462;51.368;12.364;2024-03-22T06:16:44;18684.00;;;-141.84;71.29
15260;BME280;34462;51.368;12.364;2024-03-22T06:19:11;18696.19;;;-141.84;70.55
15260;BME280;34462;51.368;12.364;2024-03-22T06:21:37;18665.72;;;-141.84;70.29
15260;BME280;34462;51.368;12.364;2024-03-22T06:24:05;18649.47;;;-141.84;68.43
15260;BME280;34462;51.368;12.364;2024-03-22T06:26:33;18643.38;;;-141.84;68.60
15260;BME280;34462;51.368;12.364;2024-03-22T06:29:00;18625.09;;;-141.84;66.68
15260;BME280;34462;51.368;12.364;2024-03-22T06:31:26;18635.25;;;-141.84;66.61
15260;BME280;34462;51.368;12.364;2024-03-22T06:33:54;18651.50;;;-141.84;66.44
15260;BME280;34462;51.368;12.364;2024-03-22T06:36:20;18663.69;;;-141.84;63.70
15260;BME280;34462;51.368;12.364;2024-03-22T06:38:48;18647.44;;;-141.84;64.04
15260;BME280;34462;51.368;12.364;2024-03-22T06:41:14;18655.56;;;-141.84;64.01
15260;BME280;34462;51.368;12.364;2024-03-22T06:43:43;18684.00;;;-141.84;64.60
15260;BME280;34462;51.368;12.364;2024-03-22T06:46:10;18706.38;;;-141.84;63.71
15260;BME280;34462;51.368;12.364;2024-03-22T06:48:37;18684.00;;;-141.84;61.86
15260;BME280;34462;51.368;12.364;2024-03-22T06:51:04;18726.69;;;-141.84;61.10
15260;BME280;34462;51.368;12.364;2024-03-22T06:53:31;18736.84;;;-141.84;60.80
15260;BME280;34462;51.368;12.364;2024-03-22T06:55:57;18708.41;;;-141.84;60.92
15260;BME280;34462;51.368;12.364;2024-03-22T06:58:24;18710.44;;;-141.84;61.53
15260;BME280;34462;51.368;12.364;2024-03-22T07:00:53;18720.59;;;-141.84;60.50
15260;BME280;34462;51.368;12.364;2024-03-22T07:03:19;18742.94;;;-141.84;59.50
15260;BME280;34462;51.368;12.364;2024-03-22T07:05:47;18738.88;;;-141.84;60.08
15260;BME280;34462;51.368;12.364;2024-03-22T07:08:14;18749.03;;;-141.84;59.17
15260;BME280;34462;51.368;12.364;2024-03-22T07:10:41;18736.84;;;-141.84;59.53
15260;BME280;34462;51.368;12.364;2024-03-22T07:13:07;18724.66;;;-141.84;60.51
15260;BME280;34462;51.368;12.364;2024-03-22T07:15:35;18740.91;;;-141.84;61.02
15260;BME280;34462;51.368;12.364;2024-03-22T07:18:03;18712.47;;;-141.84;60.81
15260;BME280;34462;51.368;12.364;2024-03-22T07:20:31;18744.97;;;-141.84;60.31
15260;BME280;34462;51.368;12.364;2024-03-22T07:22:57;18740.91;;;-141.84;61.15
15260;BME280;34462;51.368;12.364;2024-03-22T07:25:24;18718.56;;;-141.84;60.80
15260;BME280;34462;51.368;12.364;2024-03-22T07:27:50;18753.09;;;-141.84;60.89
15260;BME280;34462;51.368;12.364;2024-03-22T07:30:18;18761.22;;;-141.84;61.16
15260;BME280;34462;51.368;12.364;2024-03-22T07:32:46;18738.88;;;-141.84;60.25
15260;BME280;34462;51.368;12.364;2024-03-22T07:35:15;18773.41;;;-141.84;59.96
15260;BME280;34462;51.368;12.364;2024-03-22T07:37:41;18753.09;;;-141.84;59.86
15260;BME280;34462;51.368;12.364;2024-03-22T07:40:10;18773.41;;;-141.84;60.44
15260;BME280;34462;51.368;12.364;2024-03-22T07:42:36;18785.59;;;-141.84;59.74
15260;BME280;34462;51.368;12.364;2024-03-22T07:45:04;18753.09;;;-141.84;59.82
15260;BME280;34462;51.368;12.364;2024-03-22T07:47:31;18785.59;;;-141.84;58.68
15260;BME280;34462;51.368;12.364;2024-03-22T07:49:58;18795.75;;;-141.84;58.82
15260;BME280;34462;51.368;12.364;2024-03-22T07:52:25;18809.97;;;-141.84;58.84
15260;BME280;34462;51.368;12.364;2024-03-22T07:54:53;18809.97;;;-141.84;58.88
15260;BME280;34462;51.368;12.364;2024-03-22T07:57:19;18838.44;;;-141.84;57.67
15260;BME280;34462;51.368;12.364;2024-03-22T07:59:47;18832.34;;;-141.84;57.65
15260;BME280;34462;51.368;12.364;2024-03-22T08:02:13;18838.44;;;-141.84;56.58
15260;BME280;34462;51.368;12.364;2024-03-22T08:04:40;18846.56;;;-141.84;55.97
15260;BME280;34462;51.368;12.364;2024-03-22T08:07:07;18858.75;;;-141.84;56.46
15260;BME280;34462;51.368;12.364;2024-03-22T08:09:36;18877.03;;;-141.84;56.51
15260;BME280;34462;51.368;12.364;2024-03-22T08:12:03;18856.72;;;-141.84;55.94
15260;BME280;34462;51.368;12.364;2024-03-22T08:14:30;18877.03;;;-141.84;56.39
15260;BME280;34462;51.368;12.364;2024-03-22T08:16:56;18852.66;;;-141.84;57.02
15260;BME280;34462;51.368;12.364;2024-03-22T08:19:24;18864.84;;;-141.84;57.27
15260;BME280;34462;51.368;12.364;2024-03-22T08:21:50;18868.91;;;-141.84;56.54
15260;BME280;34462;51.368;12.364;2024-03-22T08:24:18;18879.06;;;-141.84;55.79
15260;BME280;34462;51.368;12.364;2024-03-22T08:26:46;18862.81;;;-141.84;55.87
15260;BME280;34462;51.368;12.364;2024-03-22T08:29:13;18909.53;;;-141.84;55.78
15260;BME280;34462;51.368;12.364;2024-03-22T08:31:41;18893.28;;;-141.84;56.43
15260;BME280;34462;51.368;12.364;2024-03-22T08:34:09;18899.38;;;-141.84;55.02
15260;BME280;34462;51.368;12.364;2024-03-22T08:36:35;18891.25;;;-141.84;55.42
15260;BME280;34462;51.368;12.364;2024-03-22T08:39:02;18885.16;;;-141.84;55.21
15260;BME280;34462;51.368;12.364;2024-03-22T08:41:29;18933.94;;;-141.84;54.67
15260;BME280;34462;51.368;12.364;2024-03-22T08:43:58;18923.78;;;-141.84;54.19
15260;BME280;34462;51.368;12.364;2024-03-22T08:46:24;18946.13;;;-141.84;53.99
15260;BME280;34462;51.368;12.364;2024-03-22T08:48:54;19019.28;;;-141.84;52.60
15260;BME280;34462;51.368;12.364;2024-03-22T08:51:21;19025.38;;;-141.84;52.09
15260;BME280;34462;51.368;12.364;2024-03-22T08:53:49;18980.66;;;-141.84;52.38
15260;BME280;34462;51.368;12.364;2024-03-22T08:56:15;18994.88;;;-141.84;52.28
15260;BME280;34462;51.368;12.364;2024-03-22T08:58:42;18972.53;;;-141.84;52.89
15260;BME280;34462;51.368;12.364;2024-03-22T09:01:10;18998.94;;;-141.84;52.99
15260;BME280;34462;51.368;12.364;2024-03-22T09:03:37;18970.50;;;-141.84;53.23
15260;BME280;34462;51.368;12.364;2024-03-22T09:06:05;18984.72;;;-141.84;53.20
15260;BME280;34462;51.368;12.364;2024-03-22T09:08:32;18994.88;;;-141.84;52.18
15260;BME280;34462;51.368;12.364;2024-03-22T09:11:00;19009.09;;;-141.84;52.74
15260;BME280;34462;51.368;12.364;2024-03-22T09:13:27;19082.25;;;-141.84;51.43
15260;BME280;34462;51.368;12.364;2024-03-22T09:15:57;19039.59;;;-141.84;51.31
15260;BME280;34462;51.368;12.364;2024-03-22T09:18:26;19041.63;;;-141.84;50.92
15260;BME280;34462;51.368;12.364;2024-03-22T09:20:53;19055.84;;;-141.84;50.91
15260;BME280;34462;51.368;12.364;2024-03-22T09:23:20;19086.31;;;-141.84;50.26
15260;BME280;34462;51.368;12.364;2024-03-22T09:25:47;19126.97;;;-141.84;50.02
15260;BME280;34462;51.368;12.364;2024-03-22T09:28:14;19070.06;;;-141.84;49.71
15260;BME280;34462;51.368;12.364;2024-03-22T09:30:41;19116.81;;;-141.84;49.77
15260;BME280;34462;51.368;12.364;2024-03-22T09:33:09;19120.88;;;-141.84;49.34
15260;BME280;34462;51.368;12.364;2024-03-22T09:35:37;19163.53;;;-141.84;49.48
15260;BME280;34462;51.368;12.364;2024-03-22T09:38:04;19187.91;;;-141.84;48.96
15260;BME280;34462;51.368;12.364;2024-03-22T09:40:30;19120.88;;;-141.84;48.88
15260;BME280;34462;51.368;12.364;2024-03-22T09:43:02;19151.34;;;-141.84;48.61
15260;BME280;34462;51.368;12.364;2024-03-22T09:45:31;19171.66;;;-141.84;48.12
15260;BME280;34462;51.368;12.364;2024-03-22T09:47:59;19173.69;;;-141.84;48.79
15260;BME280;34462;51.368;12.364;2024-03-22T09:50:26;19155.41;;;-141.84;48.92
15260;BME280;34462;51.368;12.364;2024-03-22T09:52:56;19165.56;;;-141.84;48.62
15260;BME280;34462;51.368;12.364;2024-03-22T09:55:24;19133.06;;;-141.84;49.43
15260;BME280;34462;51.368;12.364;2024-03-22T09:57:52;19153.38;;;-141.84;49.49
15260;BME280;34462;51.368;12.364;2024-03-22T10:00:20;19141.19;;;-141.84;49.21
15260;BME280;34462;51.368;12.364;2024-03-22T10:02:49;19198.09;;;-141.84;48.90
15260;BME280;34462;51.368;12.364;2024-03-22T10:05:16;19173.69;;;-141.84;48.64
15260;BME280;34462;51.368;12.364;2024-03-22T10:07:44;19244.81;;;-141.84;48.29
15260;BME280;34462;51.368;12.364;2024-03-22T10:10:12;19246.84;;;-141.84;48.48
15260;BME280;34462;51.368;12.364;2024-03-22T10:12:40;19210.28;;;-141.84;48.59
15260;BME280;34462;51.368;12.364;2024-03-22T10:15:07;19257.00;;;-141.84;47.94
15260;BME280;34462;51.368;12.364;2024-03-22T10:17:35;19214.34;;;-141.84;47.76
15260;BME280;34462;51.368;12.364;2024-03-22T10:20:02;19220.44;;;-141.84;47.88
15260;BME280;34462;51.368;12.364;2024-03-22T10:22:30;19236.69;;;-141.84;47.80
15260;BME280;34462;51.368;12.364;2024-03-22T10:24:56;19196.06;;;-141.84;48.06
15260;BME280;34462;51.368;12.364;2024-03-22T10:27:28;19224.50;;;-141.84;47.60
15260;BME280;34462;51.368;12.364;2024-03-22T10:29:55;19206.22;;;-141.84;47.12
15260;BME280;34462;51.368;12.364;2024-03-22T10:32:24;19242.78;;;-141.84;47.84
15260;BME280;34462;51.368;12.364;2024-03-22T10:34:51;19232.63;;;-141.84;47.79
15260;BME280;34462;51.368;12.364;2024-03-22T10:37:19;19216.38;;;-141.84;47.84
15260;BME280;34462;51.368;12.364;2024-03-22T10:39:48;19242.78;;;-141.84;48.41
15260;BME280;34462;51.368;12.364;2024-03-22T10:42:17;19232.63;;;-141.84;48.20
15260;BME280;34462;51.368;12.364;2024-03-22T10:44:46;19301.72;;;-141.84;47.63
15260;BME280;34462;51.368;12.364;2024-03-22T10:47:16;19291.56;;;-141.84;47.86
15260;BME280;34462;51.368;12.364;2024-03-22T10:49:48;19277.34;;;-141.84;47.43
15260;BME280;34462;51.368;12.364;2024-03-22T10:52:17;19344.41;;;-141.84;47.20
15260;BME280;34462;51.368;12.364;2024-03-22T10:54:46;19342.34;;;-141.84;46.72
15260;BME280;34462;51.368;12.364;2024-03-22T10:57:16;19364.72;;;-141.84;45.84
15260;BME280;34462;51.368;12.364;2024-03-22T10:59:43;19389.09;;;-141.84;45.71
15260;BME280;34462;51.368;12.364;2024-03-22T11:02:17;19358.63;;;-141.84;45.52
15260;BME280;34462;51.368;12.364;2024-03-22T11:04:56;19356.59;;;-141.84;45.89
15260;BME280;34462;51.368;12.364;2024-03-22T11:07:23;19403.31;;;-141.84;45.75
15260;BME280;34462;51.368;12.364;2024-03-22T11:09:56;19385.03;;;-141.84;45.91
15260;BME280;34462;51.368;12.364;2024-03-22T11:12:25;19380.97;;;-141.84;45.91
15260;BME280;34462;51.368;12.364;2024-03-22T11:14:53;19391.13;;;-141.84;45.86
15260;BME280;34462;51.368;12.364;2024-03-22T11:17:22;19417.56;;;-141.84;45.48
15260;BME280;34462;51.368;12.364;2024-03-22T11:19:51;19401.28;;;-141.84;45.85
15260;BME280;34462;51.368;12.364;2024-03-22T11:22:18;19429.75;;;-141.84;45.31
15260;BME280;34462;51.368;12.364;2024-03-22T11:24:45;19450.06;;;-141.84;45.57
15260;BME280;34462;51.368;12.364;2024-03-22T11:27:12;19452.09;;;-141.84;45.85
15260;BME280;34462;51.368;12.364;2024-03-22T11:29:39;19448.03;;;-141.84;46.05
15260;BME280;34462;51.368;12.364;2024-03-22T11:32:08;19425.69;;;-141.84;46.03
15260;BME280;34462;51.368;12.364;2024-03-22T11:34:36;19433.81;;;-141.84;45.89
15260;BME280;34462;51.368;12.364;2024-03-22T11:37:04;19460.22;;;-141.84;45.85
15260;BME280;34462;51.368;12.364;2024-03-22T11:39:31;19452.09;;;-141.84;45.66
15260;BME280;34462;51.368;12.364;2024-03-22T11:41:58;19480.53;;;-141.84;45.14
15260;BME280;34462;51.368;12.364;2024-03-22T11:44:25;19484.59;;;-141.84;45.11
15260;BME280;34462;51.368;12.364;2024-03-22T11:46:53;19458.19;;;-141.84;45.27
15260;BME280;34462;51.368;12.364;2024-03-22T11:49:20;19472.41;;;-141.84;45.31
15260;BME280;34462;51.368;12.364;2024-03-22T11:51:51;19484.59;;;-141.84;45.45
15260;BME280;34462;51.368;12.364;2024-03-22T11:54:19;19415.50;;;-141.84;45.45
15260;BME280;34462;51.368;12.364;2024-03-22T11:56:46;19421.63;;;-141.84;46.14
15260;BME280;34462;51.368;12.364;2024-03-22T11:59:13;19482.56;;;-141.84;45.86
15260;BME280;34462;51.368;12.364;2024-03-22T12:01:41;19466.31;;;-141.84;45.53
15260;BME280;34462;51.368;12.364;2024-03-22T12:04:09;19401.28;;;-141.84;45.85
15260;BME280;34462;51.368;12.364;2024-03-22T12:06:42;19429.75;;;-141.84;45.89
15260;BME280;34462;51.368;12.364;2024-03-22T12:09:11;19435.84;;;-141.84;45.93
15260;BME280;34462;51.368;12.364;2024-03-22T12:11:39;19448.03;;;-141.84;45.93
15260;BME280;34462;51.368;12.364;2024-03-22T12:14:06;19476.47;;;-141.84;45.59
15260;BME280;34462;51.368;12.364;2024-03-22T12:16:33;19448.03;;;-141.84;45.78
15260;BME280;34462;51.368;12.364;2024-03-22T12:19:00;19458.19;;;-141.84;45.72
15260;BME280;34462;51.368;12.364;2024-03-22T12:21:26;19474.44;;;-141.84;46.00
15260;BME280;34462;51.368;12.364;2024-03-22T12:23:54;19437.88;;;-141.84;46.12
15260;BME280;34462;51.368;12.364;2024-03-22T12:26:21;19470.38;;;-141.84;46.09
15260;BME280;34462;51.368;12.364;2024-03-22T12:28:49;19496.81;;;-141.84;45.72